メインページ
METAR-TAF:

METAR-TAF

空港 :

カイロ, エジプト

カイロ国際空港

緯度: 30-08N, 経度: 031-24E, 海抜: 64m

現時点の気象観測

当レポートは33分前の23:00(UTC)に作成
北/北西の風 7kt
気温 23°C
湿度 61%
気圧 1017 hPa
視程10km以上
1,500メートル以下は雲なし、積乱雲なし

METAR: HECA 232300Z 34007KT CAVOK 23/15 Q1017 NOSIG

時間: 01:33 (23:33 UTC)

予報

当レポートは6時間33分前の17:00(UTC)に作成
予報は23日の 18時(UTC)から 24日の 24時(UTC)まで有効
の風 10kt
視程10km以上
高度2500ftの雲は散在している
23日の 18時(UTC)から 23日の 22時(UTC)まで一時的に
の風 10kt、最大20ktの突風を伴う
確率 40% :
24日の 02時(UTC)から 24日の 08時(UTC)まで一時的に
視程: 4000m
24日の 14時(UTC)から 24日の 21時(UTC)まで一時的に
の風 10kt、最大20ktの突風を伴う

TAF: HECA 231700Z 2318/2424 36010KT 9999 SCT025 TEMPO 2318/2322 36010G20KT PROB40 TEMPO 2402/2408 4000 BR NSC TEMPO 2414/2421 36010G20KT

4,000以上の空港の気象観測と天気予報(METAR報とTAF報)

利用可能な観測所は地図上に黄色い丸と赤い丸で示す。

丸の上にカーソルを重ねると観測所名を参照できる。

次にクリックすると気象観測と天気予報を参照できる。

マップの切り替え:黒色「×」印の緑ボタンをクリックして拡大、「-」印の緑ボタンをクリックして縮小、緑色の三角印をクリックして隣りの地図に切り替え


METAR-TAF: